createdAt,value
2022-11-29T00:04:13.364Z,27.97
2022-11-29T00:09:11.601Z,28.70
2022-11-29T00:14:04.071Z,30.37
2022-11-29T00:18:56.321Z,30.07
2022-11-29T00:23:48.284Z,28.27
2022-11-29T00:28:40.288Z,31.63
2022-11-29T00:33:32.216Z,30.00
2022-11-29T00:38:24.173Z,33.40
2022-11-29T00:43:16.174Z,28.20
2022-11-29T00:48:08.111Z,28.97
2022-11-29T00:53:00.105Z,28.47
2022-11-29T00:57:51.995Z,30.10
2022-11-29T01:02:43.942Z,31.97
2022-11-29T01:07:36.125Z,30.37
2022-11-29T01:12:28.091Z,29.63
2022-11-29T01:17:20.274Z,33.73
2022-11-29T01:22:13.641Z,30.57
2022-11-29T01:27:05.613Z,32.00
2022-11-29T01:31:58.018Z,35.43
2022-11-29T01:36:49.914Z,28.27
2022-11-29T01:41:41.915Z,34.00
2022-11-29T01:46:39.423Z,36.57
2022-11-29T01:51:34.654Z,32.33
2022-11-29T01:56:28.768Z,34.80
2022-11-29T02:01:20.845Z,32.47
2022-11-29T02:07:29.290Z,31.27
2022-11-29T02:12:34.086Z,32.63
2022-11-29T02:17:56.620Z,37.17
2022-11-29T02:23:02.355Z,38.10
2022-11-29T02:28:15.818Z,35.83
2022-11-29T02:33:29.159Z,35.33
2022-11-29T02:38:38.227Z,36.00
2022-11-29T02:43:45.339Z,35.17
2022-11-29T02:48:53.155Z,36.20
2022-11-29T02:53:58.461Z,32.83
2022-11-29T02:59:05.237Z,40.23
2022-11-29T03:04:17.952Z,39.13
2022-11-29T03:09:26.593Z,40.30
2022-11-29T03:14:29.070Z,40.40
2022-11-29T03:19:56.996Z,40.73
2022-11-29T03:24:58.825Z,41.13
2022-11-29T03:29:58.634Z,43.63
2022-11-29T03:35:18.669Z,40.00
2022-11-29T03:40:15.096Z,39.63
2022-11-29T03:45:24.462Z,40.20
2022-11-29T03:50:46.089Z,41.27
2022-11-29T03:56:21.855Z,40.53
2022-11-29T04:01:28.698Z,40.10
2022-11-29T04:06:48.170Z,38.93
2022-11-29T04:12:06.228Z,37.60
2022-11-29T04:17:00.948Z,39.93
2022-11-29T04:22:20.489Z,37.53
2022-11-29T04:27:41.615Z,40.83
2022-11-29T04:32:36.269Z,40.30
2022-11-29T04:37:53.278Z,35.60
2022-11-29T04:43:15.850Z,38.90
2022-11-29T04:48:23.879Z,37.30
2022-11-29T04:53:35.075Z,38.73
2022-11-29T04:58:46.624Z,40.07
2022-11-29T05:04:12.673Z,36.47
2022-11-29T05:09:22.127Z,41.83
2022-11-29T05:14:41.565Z,41.37
2022-11-29T05:20:04.922Z,34.40
2022-11-29T05:25:34.086Z,38.50
2022-11-29T05:30:35.685Z,39.20
2022-11-29T05:35:39.795Z,40.30
2022-11-29T05:40:46.219Z,39.03
2022-11-29T05:46:04.586Z,34.63
2022-11-29T05:51:54.937Z,36.67
2022-11-29T05:57:10.478Z,35.23
2022-11-29T06:02:21.205Z,37.37
2022-11-29T06:07:22.698Z,32.00
2022-11-29T06:12:21.369Z,33.77
2022-11-29T06:17:39.222Z,33.83
2022-11-29T06:22:53.869Z,32.67
2022-11-29T06:28:14.453Z,34.83
2022-11-29T06:33:18.928Z,33.30
2022-11-29T06:38:22.909Z,38.03
2022-11-29T06:43:15.363Z,34.90
2022-11-29T06:48:10.260Z,32.73
2022-11-29T06:53:08.137Z,31.83
2022-11-29T06:58:36.580Z,34.47
2022-11-29T07:04:11.983Z,36.73
2022-11-29T07:09:14.531Z,34.57
2022-11-29T07:14:06.751Z,33.53
2022-11-29T07:19:27.877Z,33.40
2022-11-29T07:24:28.784Z,31.87
2022-11-29T07:29:41.273Z,31.17
2022-11-29T07:34:53.476Z,32.40
2022-11-29T07:40:05.149Z,33.10
2022-11-29T07:45:23.116Z,29.37
2022-11-29T07:50:15.341Z,30.90
2022-11-29T07:55:17.043Z,30.20
2022-11-29T08:00:11.316Z,31.83
2022-11-29T08:05:07.284Z,32.03
2022-11-29T08:10:00.491Z,29.60
2022-11-29T08:14:52.498Z,30.03
2022-11-29T08:19:44.846Z,27.67
2022-11-29T08:24:36.859Z,31.63
2022-11-29T08:29:28.865Z,27.33
2022-11-29T08:34:22.124Z,27.00
2022-11-29T08:39:14.139Z,26.03
2022-11-29T08:44:06.409Z,25.80
2022-11-29T08:48:58.420Z,28.47
2022-11-29T08:53:51.668Z,23.13
2022-11-29T08:58:43.660Z,28.10
2022-11-29T09:03:54.206Z,25.70
2022-11-29T09:08:46.358Z,26.77
2022-11-29T09:13:38.313Z,26.63
2022-11-29T09:18:30.403Z,26.37
2022-11-29T09:23:22.386Z,27.07
2022-11-29T09:28:14.378Z,24.57
2022-11-29T09:33:06.408Z,22.67
2022-11-29T09:37:58.494Z,23.77
2022-11-29T09:43:00.583Z,23.53
2022-11-29T09:47:58.050Z,20.77
2022-11-29T09:53:12.855Z,24.27
2022-11-29T09:58:09.883Z,21.53
2022-11-29T10:03:17.614Z,21.87
2022-11-29T10:08:34.186Z,23.23
2022-11-29T10:13:34.808Z,21.97
2022-11-29T10:18:34.721Z,20.40
2022-11-29T10:23:38.682Z,19.90
2022-11-29T10:28:33.672Z,20.27
2022-11-29T10:33:29.902Z,24.07
2022-11-29T10:38:32.088Z,21.13
2022-11-29T10:43:25.755Z,22.07
2022-11-29T10:48:21.316Z,21.83
2022-11-29T10:53:15.096Z,24.57
2022-11-29T10:58:23.392Z,25.47
2022-11-29T11:03:45.079Z,24.70
2022-11-29T11:08:43.494Z,25.63
2022-11-29T11:13:37.179Z,24.07
2022-11-29T11:18:29.278Z,24.73
2022-11-29T11:23:27.169Z,26.00
2022-11-29T11:28:22.805Z,25.50
2022-11-29T11:33:22.157Z,27.03
2022-11-29T11:38:17.251Z,25.00
2022-11-29T11:43:20.930Z,25.20
2022-11-29T11:48:15.733Z,25.93
2022-11-29T11:53:27.721Z,25.30
2022-11-29T11:58:23.668Z,24.97
2022-11-29T12:03:48.189Z,27.57
2022-11-29T12:08:40.440Z,27.47
2022-11-29T12:13:35.770Z,26.73
2022-11-29T12:18:36.165Z,25.53
2022-11-29T12:23:42.261Z,25.70
2022-11-29T12:28:38.379Z,26.17
2022-11-29T12:33:37.006Z,24.27
2022-11-29T12:38:37.268Z,24.37
2022-11-29T12:44:03.689Z,29.03
2022-11-29T12:49:37.400Z,27.80
2022-11-29T12:54:38.787Z,25.57
2022-11-29T12:59:55.194Z,31.00
2022-11-29T13:05:22.307Z,29.27
2022-11-29T13:10:30.625Z,25.97
2022-11-29T13:15:58.208Z,28.93
2022-11-29T13:21:15.060Z,27.87
2022-11-29T13:26:12.134Z,37.03
2022-11-29T13:31:13.177Z,27.90
2022-11-29T13:36:23.104Z,30.77
2022-11-29T13:41:27.880Z,28.70
2022-11-29T13:46:30.384Z,32.47
2022-11-29T13:51:28.171Z,32.37
2022-11-29T13:56:36.549Z,32.53
2022-11-29T14:01:28.853Z,35.60
2022-11-29T14:06:31.413Z,32.07
2022-11-29T14:11:28.994Z,35.00
2022-11-29T14:16:50.372Z,36.07
2022-11-29T14:22:06.392Z,35.37
2022-11-29T14:27:13.278Z,34.50
2022-11-29T14:32:20.307Z,31.93
2022-11-29T14:37:41.739Z,33.70
2022-11-29T14:42:33.823Z,32.73
2022-11-29T14:47:38.873Z,36.27
2022-11-29T14:52:39.932Z,37.43
2022-11-29T14:57:50.337Z,34.80
2022-11-29T15:02:57.849Z,34.70
2022-11-29T15:08:10.573Z,32.90
2022-11-29T15:13:04.105Z,33.90
2022-11-29T15:18:17.575Z,35.30
2022-11-29T15:23:18.656Z,35.97
2022-11-29T15:28:27.517Z,37.17
2022-11-29T15:33:24.618Z,40.97
2022-11-29T15:38:20.939Z,43.13
2022-11-29T15:43:25.583Z,37.17
2022-11-29T15:48:23.587Z,43.67
2022-11-29T15:53:21.492Z,41.70
2022-11-29T15:58:14.245Z,43.30
2022-11-29T16:03:15.639Z,38.80
2022-11-29T16:08:17.533Z,42.70
2022-11-29T16:13:28.258Z,44.60
2022-11-29T16:18:23.454Z,42.10
2022-11-29T16:23:16.031Z,42.40
2022-11-29T16:28:12.625Z,44.50
2022-11-29T16:33:04.678Z,44.23
2022-11-29T16:37:57.234Z,42.87
2022-11-29T16:43:40.852Z,43.57
2022-11-29T16:48:38.326Z,43.20
2022-11-29T16:53:38.710Z,41.20
2022-11-29T16:58:30.947Z,41.57
2022-11-29T17:03:22.878Z,43.50
2022-11-29T17:08:15.005Z,42.40
2022-11-29T17:13:11.426Z,40.90
2022-11-29T17:18:03.399Z,38.20
2022-11-29T17:22:55.315Z,39.07
2022-11-29T17:27:47.250Z,36.27
2022-11-29T17:32:39.412Z,42.57
2022-11-29T17:37:31.531Z,38.70
2022-11-29T17:42:23.678Z,42.37
2022-11-29T17:47:15.803Z,41.60
2022-11-29T17:52:08.355Z,40.77
2022-11-29T17:57:00.920Z,36.03
2022-11-29T18:01:53.058Z,42.07
2022-11-29T18:06:49.785Z,39.97
2022-11-29T18:11:48.955Z,38.47
2022-11-29T18:16:41.548Z,45.60
2022-11-29T18:21:34.783Z,37.60
2022-11-29T18:26:28.331Z,41.63
2022-11-29T18:31:23.610Z,42.50
2022-11-29T18:36:21.190Z,40.83
2022-11-29T18:41:20.430Z,44.17
2022-11-29T18:46:16.688Z,42.67
2022-11-29T18:51:11.803Z,42.63
2022-11-29T18:56:15.726Z,47.50
2022-11-29T19:01:16.591Z,43.17
2022-11-29T19:06:17.316Z,44.90
2022-11-29T19:11:12.014Z,42.53
2022-11-29T19:16:05.317Z,44.57
2022-11-29T19:21:24.386Z,48.37
2022-11-29T19:26:16.465Z,44.40
2022-11-29T19:31:09.065Z,42.07
2022-11-29T19:36:10.840Z,47.10
2022-11-29T19:41:09.467Z,47.97
2022-11-29T19:46:12.805Z,45.50
2022-11-29T19:51:07.310Z,46.47
2022-11-29T19:55:59.686Z,41.57
2022-11-29T20:00:51.803Z,48.63
2022-11-29T20:05:52.681Z,47.93
2022-11-29T20:10:44.694Z,45.90
2022-11-29T20:15:36.961Z,46.17
2022-11-29T20:20:29.619Z,48.40
2022-11-29T20:25:21.649Z,44.83
2022-11-29T20:30:15.410Z,47.47
2022-11-29T20:35:09.176Z,46.03
2022-11-29T20:40:09.417Z,47.77
2022-11-29T20:45:04.117Z,43.30
2022-11-29T20:49:57.778Z,42.90
2022-11-29T20:54:49.762Z,43.07
2022-11-29T20:59:41.952Z,44.23
2022-11-29T21:04:33.958Z,42.63
2022-11-29T21:09:26.270Z,43.83
2022-11-29T21:14:18.893Z,40.70
2022-11-29T21:19:19.812Z,39.80
2022-11-29T21:24:30.260Z,37.03
2022-11-29T21:29:23.965Z,41.07
2022-11-29T21:34:15.977Z,40.03
2022-11-29T21:39:12.557Z,39.30
2022-11-29T21:44:07.440Z,41.07
2022-11-29T21:48:59.843Z,38.67
2022-11-29T21:53:51.818Z,38.50
2022-11-29T21:58:43.877Z,37.13
2022-11-29T22:03:35.963Z,34.27
2022-11-29T22:08:27.971Z,34.33
2022-11-29T22:13:19.922Z,38.10
2022-11-29T22:18:11.870Z,34.47
2022-11-29T22:23:03.835Z,36.23
2022-11-29T22:27:55.772Z,34.90
2022-11-29T22:32:47.719Z,32.37
2022-11-29T22:37:39.637Z,36.87
2022-11-29T22:42:31.685Z,34.20
2022-11-29T22:47:23.659Z,35.57
2022-11-29T22:52:15.589Z,33.23
2022-11-29T22:57:08.801Z,33.23
2022-11-29T23:02:00.750Z,33.33
2022-11-29T23:06:52.730Z,34.10
2022-11-29T23:11:46.133Z,33.17
2022-11-29T23:16:38.149Z,32.43
2022-11-29T23:21:32.892Z,34.00
2022-11-29T23:26:36.477Z,29.80
2022-11-29T23:31:28.687Z,31.57
2022-11-29T23:36:20.959Z,33.97
2022-11-29T23:41:13.154Z,31.63
2022-11-29T23:46:09.303Z,29.63
2022-11-29T23:51:01.471Z,33.03
2022-11-29T23:56:01.253Z,32.73
